Pensacola Naval Air Station/Forrest Sherman field
KNPA : rendu visible

Aérodrome :











RETROUVEZ-NOUS SUR...

 
LOGIN :

S'inscrire | Disclaimer

   EN    FR    IT 

 









Légende :    VFR   VFR Marginal   IFR   IFR Intensif   IFR Très Intensif
Visi : 
Plafond : 
>= 8 km
>= 3000ft
5 à 8 km
1000 à 3000 ft
1500m à 5 km
500 à 1000 ft
800 à 1500m
200 à 500 ft
< 800m
< 200 ft
Symboles :   Orages  Brouillard  Fortes neiges  Fortes précipitations  Vent > 20 kt






- Altitude de l'aérodrome : 28 ft


KNPA - Pensacola Naval Air Station/Forrest Sherman field

DERNIER METAR :
  • 280732Z AUTO 20012KT 10SM SCT014 26/23 A2993 RMK AO2 T02610233

METARs EXPIRÉS :
  • 280656Z AUTO 18009KT 10SM SCT015 SCT025 BKN065 26/23 A2993 RMK AO2 SLP136 T02610233
  • 280632Z AUTO 16010KT 10SM SCT018 BKN023 BKN028 26/23 A2993 RMK AO2 T02610233
  • 280556Z AUTO 17012KT 10SM CLR 26/23 A2992 RMK AO2 SLP135 T02560228 10261 20250 402780222 55002
  • 280456Z AUTO 17011KT 10SM CLR 26/23 A2992 RMK AO2 SLP132 T02560228

TAF TAF KNPA
Valide du 28 à 07h jusqu'au 29 à 07h UTC


2807/2907 16010KT 9999 SCT018 BKN023 BKN028 QHN2989INS
BECMG 2817/2819 180013KT 9999 VCTS SCT025CB BKN120 QNH2985INS
FM290300 18010KT 9999 OVC250 QNH2988INS AUTOMATED SENSOR METWATCH 2807 TIL 2811 T23/2809Z T29/2818Z FN00219
FIR KZJX / Amérique du Nord



MET'MAP, la Météo Aéronautique d'un coup d'oeil ! - Copyright ORBIFLY Décembre 2007 - Disclaimer

ORBIFLY MET'MAP TEAM :

Programmation & Développement : Alexandra Zaïnal
Sur une idée originale de : Baudouin d'Aumeries
Assistance à la programmation : Marc-Olivier Méhu
Soutien technique & logistique : Manuel Goepfert

Contact : metmap@orbifly.com




SOURCES & CREDITS :

   NOAA       Earth
Advisory